Thunder radar more information blitzortung!


Radar de pluja more information rain snow radar


Visita la nostra xarxa de llocs de meteo:

Template documentation
and downloads

And another site



No particular awareness of the weather is required.    There are no Weather-warnings

Pagina Historial Weather Underground text

Diari Resum Novembre 27, 2017 Unitats:  Tant    Imperial   Mètric
« Previous Dia
SegĂźent Dia »
Diari Setmana Mensual Anual Personalitzada
  Maxima: Minima: Media:
Temperatura: TemperatureC °F /  -17.8 °C 2.0 °F /  -16.7 °C 7.8 °F /  -13.4 °C
Punt de rosada: DewpointC °F /  -17.8 °C -4.9 °F /  -20.5 °C -0.9 °F /  -18.3 °C
Humitat: Humidity % 48 % 54 %
Wind Speed: WindSpeedKMH mph /  0 km/h - 2.6 mph /  4.2 km/h
RĂ fegues de vent: WindSpeedGustKMH mph /  0 km/h - -
Vent:- - South
Pression baro: PressurehPa in /  0 hPa 1018.8 in /  34496.6 hPa -
Precipitacions: 0.0 in /  0 mm    
Historical Graphs
 
 
Dades de taula per Novembre 27, 2017
Temps Temperatura Punt de rosada Pression baro Vent Wind Speed RĂ fegues de vent Humitat Rainfall Rate (Hourly)
TemperatureC °F /  -17.8 °C DewpointC °F /  -17.8 °C PressurehPa in /  0 hPa Calm     Humidity % HourlyPrecipMM in /  0 mm
00:00 4.4 °F /  -15.3 °C -4.9 °F /  -20.5 °C 1030.0 in /  34875.8 hPa SE 1.9 mph /  3.1 km/h   51 % 0.0 in /  0 mm
00:05 4.4 °F /  -15.3 °C -4.9 °F /  -20.5 °C 1030.0 in /  34875.8 hPa ENE 1.9 mph /  3.1 km/h   51 % 0.0 in /  0 mm
00:10 4.3 °F /  -15.4 °C -4.9 °F /  -20.5 °C 1030.0 in /  34875.8 hPa WNW 1.9 mph /  3.1 km/h 1.9 mph /  3.1 km/h 51 % 0.0 in /  0 mm
00:15 3.0 °F /  -16.1 °C -4.7 °F /  -20.4 °C 1029.0 in /  34841.9 hPa WSW 3.2 mph /  5.1 km/h 3.2 mph /  5.1 km/h 57 % 0.0 in /  0 mm
00:25 2.8 °F /  -16.2 °C -4.7 °F /  -20.4 °C 1029.0 in /  34841.9 hPa WSW 1.6 mph /  2.6 km/h 3.2 mph /  5.1 km/h 58 % 0.0 in /  0 mm
00:35 2.9 °F /  -16.2 °C -4.3 °F /  -20.2 °C 1029.0 in /  34841.9 hPa Calm   3.2 mph /  5.1 km/h 59 % 0.0 in /  0 mm
00:45 2.7 °F /  -16.3 °C -4.3 °F /  -20.2 °C 1029.0 in /  34841.9 hPa Calm   1.6 mph /  2.6 km/h 60 % 0.0 in /  0 mm
00:55 2.8 °F /  -16.2 °C -4.2 °F /  -20.1 °C 1029.0 in /  34841.9 hPa Calm   3.2 mph /  5.1 km/h 60 % 0.0 in /  0 mm
01:05 2.7 °F /  -16.3 °C -4.3 °F /  -20.2 °C 1030.0 in /  34875.8 hPa Calm   1.6 mph /  2.6 km/h 60 % 0.0 in /  0 mm
01:15 2.6 °F /  -16.3 °C -4.4 °F /  -20.2 °C 1030.0 in /  34875.8 hPa Calm   1.6 mph /  2.6 km/h 60 % 0.0 in /  0 mm
01:25 2.4 °F /  -16.4 °C -4.6 °F /  -20.3 °C 1030.0 in /  34875.8 hPa NNW 3.2 mph /  5.1 km/h 3.2 mph /  5.1 km/h 60 % 0.0 in /  0 mm
01:35 2.1 °F /  -16.6 °C -4.7 °F /  -20.4 °C 1030.0 in /  34875.8 hPa WNW 1.6 mph /  2.6 km/h 3.2 mph /  5.1 km/h 61 % 0.0 in /  0 mm
01:45 2.1 °F /  -16.6 °C -4.7 °F /  -20.4 °C 1030.0 in /  34875.8 hPa ENE 1.6 mph /  2.6 km/h   61 % 0.0 in /  0 mm
01:55 2.0 °F /  -16.7 °C -4.7 °F /  -20.4 °C 1030.0 in /  34875.8 hPa Calm     61 % 0.0 in /  0 mm
02:05 2.0 °F /  -16.7 °C -4.7 °F /  -20.4 °C 1030.0 in /  34875.8 hPa Calm   3.2 mph /  5.1 km/h 61 % 0.0 in /  0 mm
02:15 2.2 °F /  -16.6 °C -4.3 °F /  -20.2 °C 1030.0 in /  34875.8 hPa Calm   3.2 mph /  5.1 km/h 62 % 0.0 in /  0 mm
02:25 2.6 °F /  -16.3 °C -3.9 °F /  -19.9 °C 1030.0 in /  34875.8 hPa Calm   3.2 mph /  5.1 km/h 62 % 0.0 in /  0 mm
02:35 3.0 °F /  -16.1 °C -3.6 °F /  -19.8 °C 1030.0 in /  34875.8 hPa NNE 1.6 mph /  2.6 km/h 3.2 mph /  5.1 km/h 62 % 0.0 in /  0 mm
02:45 3.6 °F /  -15.8 °C -3.0 °F /  -19.4 °C 1030.0 in /  34875.8 hPa NE 1.6 mph /  2.6 km/h   62 % 0.0 in /  0 mm
02:55 3.7 °F /  -15.7 °C -3.1 °F /  -19.5 °C 1030.0 in /  34875.8 hPa NE 1.6 mph /  2.6 km/h 4.8 mph /  7.7 km/h 61 % 0.0 in /  0 mm
03:05 4.3 °F /  -15.4 °C -2.6 °F /  -19.2 °C 1030.0 in /  34875.8 hPa NE 1.6 mph /  2.6 km/h 1.6 mph /  2.6 km/h 61 % 0.0 in /  0 mm
03:15 5.0 °F /  -15 °C -2.1 °F /  -18.9 °C 1030.0 in /  34875.8 hPa Calm   1.6 mph /  2.6 km/h 60 % 0.0 in /  0 mm
03:25 5.6 °F /  -14.7 °C -1.8 °F /  -18.8 °C 1030.0 in /  34875.8 hPa SE 1.6 mph /  2.6 km/h 1.6 mph /  2.6 km/h 59 % 0.0 in /  0 mm
03:35 5.1 °F /  -14.9 °C -2.5 °F /  -19.2 °C 1030.0 in /  34875.8 hPa East 3.2 mph /  5.1 km/h 3.2 mph /  5.1 km/h 58 % 0.0 in /  0 mm
03:45 5.1 °F /  -14.9 °C -2.7 °F /  -19.3 °C 1030.0 in /  34875.8 hPa ENE 3.2 mph /  5.1 km/h 4.8 mph /  7.7 km/h 57 % 0.0 in /  0 mm
03:55 5.6 °F /  -14.7 °C -2.3 °F /  -19.1 °C 1030.7 in /  34899.5 hPa ENE 3.2 mph /  5.1 km/h 3.2 mph /  5.1 km/h 57 % 0.0 in /  0 mm
04:05 5.8 °F /  -14.6 °C -2.1 °F /  -18.9 °C 1030.7 in /  34899.5 hPa NE 1.6 mph /  2.6 km/h 4.8 mph /  7.7 km/h 57 % 0.0 in /  0 mm
04:15 6.0 °F /  -14.4 °C -2.1 °F /  -18.9 °C 1030.7 in /  34899.5 hPa NE 4.8 mph /  7.7 km/h 6.4 mph /  10.3 km/h 56 % 0.0 in /  0 mm
04:25 6.2 °F /  -14.3 °C -2.2 °F /  -19 °C 1030.7 in /  34899.5 hPa NE 4.8 mph /  7.7 km/h 6.4 mph /  10.3 km/h 55 % 0.0 in /  0 mm
04:35 7.0 °F /  -13.9 °C -1.2 °F /  -18.4 °C 1030.7 in /  34899.5 hPa NE 1.6 mph /  2.6 km/h 3.2 mph /  5.1 km/h 56 % 0.0 in /  0 mm
10:41 7.2 °F /  -13.8 °C -1.2 °F /  -18.4 °C 1030.7 in /  34899.5 hPa ENE 3.7 mph /  6 km/h 3.7 mph /  6 km/h 55 % 0.0 in /  0 mm
10:42 7.2 °F /  -13.8 °C -1.2 °F /  -18.4 °C 1030.7 in /  34899.5 hPa ENE 3.9 mph /  6.3 km/h 3.9 mph /  6.3 km/h 55 % 0.0 in /  0 mm
10:46 7.4 °F /  -13.7 °C -1.1 °F /  -18.4 °C 1030.0 in /  34875.8 hPa SW 1.9 mph /  3.1 km/h 1.9 mph /  3.1 km/h 55 % 0.0 in /  0 mm
10:51 7.8 °F /  -13.4 °C -0.7 °F /  -18.2 °C 1030.0 in /  34875.8 hPa ENE 3.7 mph /  6 km/h 3.7 mph /  6 km/h 55 % 0.0 in /  0 mm
10:56 8.0 °F /  -13.3 °C -0.8 °F /  -18.2 °C 1030.0 in /  34875.8 hPa ESE 3.7 mph /  6 km/h 3.7 mph /  6 km/h 54 % 0.0 in /  0 mm
11:01 8.1 °F /  -13.3 °C -0.7 °F /  -18.2 °C 1030.7 in /  34899.5 hPa East 3.7 mph /  6 km/h 3.7 mph /  6 km/h 54 % 0.0 in /  0 mm
11:06 8.4 °F /  -13.1 °C -0.4 °F /  -18 °C 1030.7 in /  34899.5 hPa ESE 3.7 mph /  6 km/h 3.7 mph /  6 km/h 54 % 0.0 in /  0 mm
11:11 8.6 °F /  -13 °C -0.4 °F /  -18 °C 1030.7 in /  34899.5 hPa SW 3.7 mph /  6 km/h 3.7 mph /  6 km/h 53 % 0.0 in /  0 mm
11:16 8.9 °F /  -12.8 °C 0.1 °F /  -17.7 °C 1030.0 in /  34875.8 hPa East 1.9 mph /  3.1 km/h 1.9 mph /  3.1 km/h 54 % 0.0 in /  0 mm
11:21 8.9 °F /  -12.8 °C -0.2 °F /  -17.9 °C 1030.0 in /  34875.8 hPa ENE 3.7 mph /  6 km/h 3.7 mph /  6 km/h 53 % 0.0 in /  0 mm
11:26 9.0 °F /  -12.8 °C -0.1 °F /  -17.8 °C 1030.0 in /  34875.8 hPa SE 1.9 mph /  3.1 km/h 1.9 mph /  3.1 km/h 53 % 0.0 in /  0 mm
11:31 9.6 °F /  -12.4 °C 0.5 °F /  -17.5 °C 1030.0 in /  34875.8 hPa South 2.3 mph /  3.7 km/h   53 % 0.0 in /  0 mm
11:36 9.7 °F /  -12.4 °C 0.6 °F /  -17.4 °C 1030.0 in /  34875.8 hPa South 3.9 mph /  6.3 km/h 3.9 mph /  6.3 km/h 53 % 0.0 in /  0 mm
11:41 9.6 °F /  -12.4 °C 0.5 °F /  -17.5 °C 1030.0 in /  34875.8 hPa SSE 1.9 mph /  3.1 km/h 1.9 mph /  3.1 km/h 53 % 0.0 in /  0 mm
11:46 9.5 °F /  -12.5 °C 0.4 °F /  -17.6 °C 1030.0 in /  34875.8 hPa NNE 3.7 mph /  6 km/h 3.7 mph /  6 km/h 53 % 0.0 in /  0 mm
11:51 9.5 °F /  -12.5 °C 0.4 °F /  -17.6 °C 1030.0 in /  34875.8 hPa ESE 3.7 mph /  6 km/h 3.7 mph /  6 km/h 53 % 0.0 in /  0 mm
11:57 9.6 °F /  -12.4 °C 0.2 °F /  -17.7 °C 1030.0 in /  34875.8 hPa South 3.7 mph /  6 km/h   52 % 0.0 in /  0 mm
12:02 10.4 °F /  -12 °C 1.2 °F /  -17.1 °C 1030.0 in /  34875.8 hPa South 1.9 mph /  3.1 km/h   53 % 0.0 in /  0 mm
12:07 10.2 °F /  -12.1 °C 1.1 °F /  -17.2 °C 1030.0 in /  34875.8 hPa NNW 3.7 mph /  6 km/h 3.7 mph /  6 km/h 53 % 0.0 in /  0 mm
12:12 10.7 °F /  -11.8 °C 1.5 °F /  -16.9 °C 1030.0 in /  34875.8 hPa ENE 2.3 mph /  3.7 km/h   53 % 0.0 in /  0 mm
12:17 10.5 °F /  -11.9 °C 1.1 °F /  -17.2 °C 1030.0 in /  34875.8 hPa WNW 3.7 mph /  6 km/h 3.7 mph /  6 km/h 52 % 0.0 in /  0 mm
12:22 10.7 °F /  -11.8 °C 1.2 °F /  -17.1 °C 1030.0 in /  34875.8 hPa East 3.7 mph /  6 km/h 3.7 mph /  6 km/h 52 % 0.0 in /  0 mm
12:27 10.6 °F /  -11.9 °C 1.2 °F /  -17.1 °C 1030.0 in /  34875.8 hPa East 5.6 mph /  9 km/h 5.6 mph /  9 km/h 52 % 0.0 in /  0 mm
12:32 10.6 °F /  -11.9 °C 1.2 °F /  -17.1 °C 1030.0 in /  34875.8 hPa NE 7.4 mph /  11.9 km/h 7.4 mph /  11.9 km/h 52 % 0.0 in /  0 mm
12:42 10.7 °F /  -11.8 °C 1.2 °F /  -17.1 °C 1030.0 in /  34875.8 hPa WSW 3.7 mph /  6 km/h 3.7 mph /  6 km/h 52 % 0.0 in /  0 mm
12:47 11.3 °F /  -11.5 °C 1.8 °F /  -16.8 °C 1029.0 in /  34841.9 hPa ENE 5.0 mph /  8 km/h 5.0 mph /  8 km/h 52 % 0.0 in /  0 mm
12:52 11.2 °F /  -11.6 °C 1.7 °F /  -16.8 °C 1029.0 in /  34841.9 hPa NE 5.6 mph /  9 km/h 5.6 mph /  9 km/h 52 % 0.0 in /  0 mm
12:57 11.3 °F /  -11.5 °C 1.8 °F /  -16.8 °C 1029.0 in /  34841.9 hPa NNW 5.6 mph /  9 km/h 5.6 mph /  9 km/h 52 % 0.0 in /  0 mm
13:02 11.7 °F /  -11.3 °C 2.2 °F /  -16.6 °C 1029.0 in /  34841.9 hPa NW 7.4 mph /  11.9 km/h 7.4 mph /  11.9 km/h 52 % 0.0 in /  0 mm
13:07 12.2 °F /  -11 °C 2.6 °F /  -16.3 °C 1029.0 in /  34841.9 hPa SW 11.1 mph /  17.9 km/h 11.1 mph /  17.9 km/h 52 % 0.0 in /  0 mm
13:12 12.2 °F /  -11 °C 2.3 °F /  -16.5 °C 1029.0 in /  34841.9 hPa WSW 4.2 mph /  6.8 km/h 4.2 mph /  6.8 km/h 51 % 0.0 in /  0 mm
13:17 12.5 °F /  -10.8 °C 2.6 °F /  -16.3 °C 1028.0 in /  34808.1 hPa WSW 6.4 mph /  10.3 km/h 6.4 mph /  10.3 km/h 51 % 0.0 in /  0 mm
13:22 12.5 °F /  -10.8 °C 2.6 °F /  -16.3 °C 1028.0 in /  34808.1 hPa WSW 7.4 mph /  11.9 km/h 7.4 mph /  11.9 km/h 51 % 0.0 in /  0 mm
13:27 12.7 °F /  -10.7 °C 2.8 °F /  -16.2 °C 1028.0 in /  34808.1 hPa WSW 3.7 mph /  6 km/h 3.7 mph /  6 km/h 51 % 0.0 in /  0 mm
13:32 12.9 °F /  -10.6 °C 3.0 °F /  -16.1 °C 1028.0 in /  34808.1 hPa SW 10.0 mph /  16.1 km/h 10.0 mph /  16.1 km/h 51 % 0.0 in /  0 mm
13:37 12.7 °F /  -10.7 °C 2.8 °F /  -16.2 °C 1028.0 in /  34808.1 hPa WSW 7.9 mph /  12.7 km/h 7.9 mph /  12.7 km/h 51 % 0.0 in /  0 mm
13:42 12.7 °F /  -10.7 °C 2.6 °F /  -16.3 °C 1028.0 in /  34808.1 hPa West 3.9 mph /  6.3 km/h 3.9 mph /  6.3 km/h 50 % 0.0 in /  0 mm
13:47 12.7 °F /  -10.7 °C 2.6 °F /  -16.3 °C 1028.0 in /  34808.1 hPa SSW 9.7 mph /  15.6 km/h 9.7 mph /  15.6 km/h 50 % 0.0 in /  0 mm
13:57 12.3 °F /  -10.9 °C 1.9 °F /  -16.7 °C 1028.0 in /  34808.1 hPa SW 7.4 mph /  11.9 km/h 7.4 mph /  11.9 km/h 49 % 0.0 in /  0 mm
14:02 12.2 °F /  -11 °C 1.8 °F /  -16.8 °C 1028.0 in /  34808.1 hPa West 7.4 mph /  11.9 km/h 7.4 mph /  11.9 km/h 49 % 0.0 in /  0 mm
14:07 12.2 °F /  -11 °C 1.8 °F /  -16.8 °C 1028.0 in /  34808.1 hPa SSW 5.6 mph /  9 km/h 5.6 mph /  9 km/h 49 % 0.0 in /  0 mm
14:08 12.2 °F /  -11 °C 1.8 °F /  -16.8 °C 1028.0 in /  34808.1 hPa SW 5.6 mph /  9 km/h 5.6 mph /  9 km/h 49 % 0.0 in /  0 mm
14:13 12.1 °F /  -11.1 °C 1.7 °F /  -16.8 °C 1028.0 in /  34808.1 hPa WSW 6.4 mph /  10.3 km/h 6.4 mph /  10.3 km/h 49 % 0.0 in /  0 mm
14:18 12.1 °F /  -11.1 °C 1.7 °F /  -16.8 °C 1028.0 in /  34808.1 hPa WSW 6.4 mph /  10.3 km/h 6.4 mph /  10.3 km/h 49 % 0.0 in /  0 mm
14:23 12.1 °F /  -11.1 °C 1.7 °F /  -16.8 °C 1028.0 in /  34808.1 hPa WSW 3.7 mph /  6 km/h 3.7 mph /  6 km/h 49 % 0.0 in /  0 mm
14:28 12.3 °F /  -10.9 °C 1.9 °F /  -16.7 °C 1028.0 in /  34808.1 hPa SSW 5.6 mph /  9 km/h 5.6 mph /  9 km/h 49 % 0.0 in /  0 mm
14:33 12.4 °F /  -10.9 °C 1.9 °F /  -16.7 °C 1028.0 in /  34808.1 hPa WSW 5.6 mph /  9 km/h 5.6 mph /  9 km/h 49 % 0.0 in /  0 mm
14:38 12.5 °F /  -10.8 °C 2.1 °F /  -16.6 °C 1028.0 in /  34808.1 hPa WSW 5.6 mph /  9 km/h 5.6 mph /  9 km/h 49 % 0.0 in /  0 mm
14:43 12.5 °F /  -10.8 °C 2.1 °F /  -16.6 °C 1028.0 in /  34808.1 hPa SW 5.0 mph /  8 km/h 5.0 mph /  8 km/h 49 % 0.0 in /  0 mm
14:53 12.5 °F /  -10.8 °C 2.1 °F /  -16.6 °C 1028.0 in /  34808.1 hPa SSW 7.4 mph /  11.9 km/h 7.4 mph /  11.9 km/h 49 % 0.0 in /  0 mm
14:58 12.7 °F /  -10.7 °C 2.2 °F /  -16.6 °C 1028.0 in /  34808.1 hPa SW 1.9 mph /  3.1 km/h 1.9 mph /  3.1 km/h 49 % 0.0 in /  0 mm
15:03 12.7 °F /  -10.7 °C 2.2 °F /  -16.6 °C 1027.0 in /  34774.2 hPa SW 5.6 mph /  9 km/h 5.6 mph /  9 km/h 49 % 0.0 in /  0 mm
15:13 12.7 °F /  -10.7 °C 2.2 °F /  -16.6 °C 1027.0 in /  34774.2 hPa SW 3.7 mph /  6 km/h 3.7 mph /  6 km/h 49 % 0.0 in /  0 mm
15:18 12.5 °F /  -10.8 °C 2.1 °F /  -16.6 °C 1027.0 in /  34774.2 hPa SSW 7.4 mph /  11.9 km/h 7.4 mph /  11.9 km/h 49 % 0.0 in /  0 mm
15:23 12.3 °F /  -10.9 °C 1.6 °F /  -16.9 °C 1027.0 in /  34774.2 hPa SW 3.7 mph /  6 km/h 3.7 mph /  6 km/h 48 % 0.0 in /  0 mm
15:28 12.3 °F /  -10.9 °C 1.6 °F /  -16.9 °C 1027.0 in /  34774.2 hPa SW 3.7 mph /  6 km/h 3.7 mph /  6 km/h 48 % 0.0 in /  0 mm
15:33 12.3 °F /  -10.9 °C 1.6 °F /  -16.9 °C 1027.0 in /  34774.2 hPa SW 4.2 mph /  6.8 km/h   48 % 0.0 in /  0 mm
15:38 12.2 °F /  -11 °C 1.5 °F /  -16.9 °C 1027.0 in /  34774.2 hPa SSW 5.6 mph /  9 km/h 5.6 mph /  9 km/h 48 % 0.0 in /  0 mm
15:43 12.1 °F /  -11.1 °C 1.4 °F /  -17 °C 1027.0 in /  34774.2 hPa WSW 5.6 mph /  9 km/h 5.6 mph /  9 km/h 48 % 0.0 in /  0 mm
15:48 12.0 °F /  -11.1 °C 1.3 °F /  -17.1 °C 1027.0 in /  34774.2 hPa SW 5.6 mph /  9 km/h 5.6 mph /  9 km/h 48 % 0.0 in /  0 mm
15:53 11.8 °F /  -11.2 °C 1.1 °F /  -17.2 °C 1027.0 in /  34774.2 hPa SW 5.6 mph /  9 km/h 5.6 mph /  9 km/h 48 % 0.0 in /  0 mm
15:58 11.9 °F /  -11.2 °C 1.2 °F /  -17.1 °C 1027.0 in /  34774.2 hPa WSW 3.7 mph /  6 km/h 3.7 mph /  6 km/h 48 % 0.0 in /  0 mm
16:03 11.8 °F /  -11.2 °C 1.1 °F /  -17.2 °C 1027.0 in /  34774.2 hPa WSW 1.9 mph /  3.1 km/h   48 % 0.0 in /  0 mm
16:08 11.8 °F /  -11.2 °C 1.1 °F /  -17.2 °C 1027.0 in /  34774.2 hPa Calm     48 % 0.0 in /  0 mm
16:13 11.7 °F /  -11.3 °C 1.1 °F /  -17.2 °C 1027.0 in /  34774.2 hPa Calm     48 % 0.0 in /  0 mm
16:18 11.6 °F /  -11.3 °C 0.9 °F /  -17.3 °C 1028.0 in /  34808.1 hPa Calm     48 % 0.0 in /  0 mm
16:23 11.4 °F /  -11.4 °C 0.8 °F /  -17.3 °C 1028.0 in /  34808.1 hPa Calm     48 % 0.0 in /  0 mm
16:28 11.3 °F /  -11.5 °C 0.7 °F /  -17.4 °C 1028.0 in /  34808.1 hPa Calm     48 % 0.0 in /  0 mm
16:33 11.2 °F /  -11.6 °C 0.6 °F /  -17.4 °C 1027.0 in /  34774.2 hPa Calm     48 % 0.0 in /  0 mm
16:38 11.1 °F /  -11.6 °C 0.5 °F /  -17.5 °C 1027.0 in /  34774.2 hPa Calm     48 % 0.0 in /  0 mm
16:43 11.1 °F /  -11.6 °C 0.8 °F /  -17.3 °C 1027.0 in /  34774.2 hPa SW 3.7 mph /  6 km/h 3.7 mph /  6 km/h 49 % 0.0 in /  0 mm
16:48 11.1 °F /  -11.6 °C 0.8 °F /  -17.3 °C 1027.0 in /  34774.2 hPa Calm     49 % 0.0 in /  0 mm
16:53 11.0 °F /  -11.7 °C 0.7 °F /  -17.4 °C 1027.0 in /  34774.2 hPa WSW 2.3 mph /  3.7 km/h 2.3 mph /  3.7 km/h 49 % 0.0 in /  0 mm
16:58 10.8 °F /  -11.8 °C 0.5 °F /  -17.5 °C 1027.0 in /  34774.2 hPa WSW 1.9 mph /  3.1 km/h 1.9 mph /  3.1 km/h 49 % 0.0 in /  0 mm
17:03 10.6 °F /  -11.9 °C 0.3 °F /  -17.6 °C 1026.0 in /  34740.4 hPa WSW 1.9 mph /  3.1 km/h   49 % 0.0 in /  0 mm
17:08 10.4 °F /  -12 °C 0.1 °F /  -17.7 °C 1026.0 in /  34740.4 hPa WSW 1.9 mph /  3.1 km/h 1.9 mph /  3.1 km/h 49 % 0.0 in /  0 mm
17:13 10.3 °F /  -12.1 °C 0.1 °F /  -17.7 °C 1026.0 in /  34740.4 hPa WSW 2.3 mph /  3.7 km/h 2.3 mph /  3.7 km/h 49 % 0.0 in /  0 mm
17:15 10.2 °F /  -12.1 °C -0.1 °F /  -17.8 °C 1026.0 in /  34740.4 hPa WSW 3.2 mph /  5.1 km/h 3.2 mph /  5.1 km/h 49 % 0.0 in /  0 mm
17:20 10.1 °F /  -12.2 °C -0.2 °F /  -17.9 °C 1026.0 in /  34740.4 hPa WSW 3.7 mph /  6 km/h 3.7 mph /  6 km/h 49 % 0.0 in /  0 mm
17:25 9.9 °F /  -12.3 °C -0.3 °F /  -17.9 °C 1026.0 in /  34740.4 hPa WSW 3.7 mph /  6 km/h 3.7 mph /  6 km/h 49 % 0.0 in /  0 mm
17:30 9.7 °F /  -12.4 °C -0.5 °F /  -18.1 °C 1026.0 in /  34740.4 hPa WSW 1.9 mph /  3.1 km/h 1.9 mph /  3.1 km/h 49 % 0.0 in /  0 mm
17:35 9.6 °F /  -12.4 °C -0.6 °F /  -18.1 °C 1026.0 in /  34740.4 hPa WSW 3.7 mph /  6 km/h 3.7 mph /  6 km/h 49 % 0.0 in /  0 mm
17:40 9.5 °F /  -12.5 °C -0.7 °F /  -18.2 °C 1026.0 in /  34740.4 hPa Calm     49 % 0.0 in /  0 mm
17:45 9.3 °F /  -12.6 °C -0.6 °F /  -18.1 °C 1026.0 in /  34740.4 hPa Calm     50 % 0.0 in /  0 mm
17:50 9.2 °F /  -12.7 °C -0.7 °F /  -18.2 °C 1026.0 in /  34740.4 hPa Calm     50 % 0.0 in /  0 mm
17:55 9.0 °F /  -12.8 °C -0.9 °F /  -18.3 °C 1026.0 in /  34740.4 hPa Calm     50 % 0.0 in /  0 mm
18:00 8.9 °F /  -12.8 °C -1.0 °F /  -18.3 °C 1026.0 in /  34740.4 hPa WSW 1.9 mph /  3.1 km/h 2.3 mph /  3.7 km/h 50 % 0.0 in /  0 mm
18:05 8.8 °F /  -12.9 °C -1.1 °F /  -18.4 °C 1026.0 in /  34740.4 hPa West 4.7 mph /  7.6 km/h 4.7 mph /  7.6 km/h 50 % 0.0 in /  0 mm
18:10 8.8 °F /  -12.9 °C -1.1 °F /  -18.4 °C 1026.0 in /  34740.4 hPa WSW 3.9 mph /  6.3 km/h 3.9 mph /  6.3 km/h 50 % 0.0 in /  0 mm
18:15 8.7 °F /  -12.9 °C -0.9 °F /  -18.3 °C 1026.0 in /  34740.4 hPa WSW 1.9 mph /  3.1 km/h   51 % 0.0 in /  0 mm
18:20 8.6 °F /  -13 °C -1.0 °F /  -18.3 °C 1026.0 in /  34740.4 hPa WSW 3.7 mph /  6 km/h 3.7 mph /  6 km/h 51 % 0.0 in /  0 mm
18:25 8.5 °F /  -13.1 °C -1.1 °F /  -18.4 °C 1026.0 in /  34740.4 hPa Calm     51 % 0.0 in /  0 mm
18:30 8.4 °F /  -13.1 °C -1.2 °F /  -18.4 °C 1026.0 in /  34740.4 hPa WSW 1.9 mph /  3.1 km/h   51 % 0.0 in /  0 mm
18:35 8.2 °F /  -13.2 °C -1.3 °F /  -18.5 °C 1026.0 in /  34740.4 hPa WSW 1.9 mph /  3.1 km/h   51 % 0.0 in /  0 mm
18:40 8.1 °F /  -13.3 °C -1.2 °F /  -18.4 °C 1026.0 in /  34740.4 hPa Calm     52 % 0.0 in /  0 mm
18:45 7.9 °F /  -13.4 °C -1.4 °F /  -18.6 °C 1026.0 in /  34740.4 hPa Calm     52 % 0.0 in /  0 mm
18:50 7.8 °F /  -13.4 °C -1.4 °F /  -18.6 °C 1026.0 in /  34740.4 hPa Calm     52 % 0.0 in /  0 mm
18:55 7.8 °F /  -13.4 °C -1.4 °F /  -18.6 °C 1026.0 in /  34740.4 hPa SW 2.3 mph /  3.7 km/h 2.3 mph /  3.7 km/h 52 % 0.0 in /  0 mm
19:00 7.7 °F /  -13.5 °C -1.3 °F /  -18.5 °C 1026.0 in /  34740.4 hPa Calm     53 % 0.0 in /  0 mm
19:05 7.5 °F /  -13.6 °C -1.5 °F /  -18.6 °C 1026.0 in /  34740.4 hPa Calm     53 % 0.0 in /  0 mm
19:10 7.6 °F /  -13.6 °C -1.4 °F /  -18.6 °C 1026.0 in /  34740.4 hPa WSW 2.6 mph /  4.2 km/h   53 % 0.0 in /  0 mm
19:15 7.6 °F /  -13.6 °C -1.4 °F /  -18.6 °C 1026.0 in /  34740.4 hPa Calm     53 % 0.0 in /  0 mm
19:20 7.7 °F /  -13.5 °C -1.3 °F /  -18.5 °C 1026.0 in /  34740.4 hPa SW 3.7 mph /  6 km/h 3.7 mph /  6 km/h 53 % 0.0 in /  0 mm
19:25 7.7 °F /  -13.5 °C -1.1 °F /  -18.4 °C 1026.0 in /  34740.4 hPa WSW 1.9 mph /  3.1 km/h   54 % 0.0 in /  0 mm
19:30 7.8 °F /  -13.4 °C -0.9 °F /  -18.3 °C 1026.0 in /  34740.4 hPa WSW 3.7 mph /  6 km/h 3.7 mph /  6 km/h 54 % 0.0 in /  0 mm
19:35 7.7 °F /  -13.5 °C -1.1 °F /  -18.4 °C 1026.0 in /  34740.4 hPa WSW 3.7 mph /  6 km/h 3.7 mph /  6 km/h 54 % 0.0 in /  0 mm
19:40 7.7 °F /  -13.5 °C -1.1 °F /  -18.4 °C 1026.0 in /  34740.4 hPa WSW 4.2 mph /  6.8 km/h 4.2 mph /  6.8 km/h 54 % 0.0 in /  0 mm
19:45 7.7 °F /  -13.5 °C -1.1 °F /  -18.4 °C 1026.0 in /  34740.4 hPa SW 4.2 mph /  6.8 km/h 4.2 mph /  6.8 km/h 54 % 0.0 in /  0 mm
19:50 7.7 °F /  -13.5 °C -1.1 °F /  -18.4 °C 1026.0 in /  34740.4 hPa SW 3.7 mph /  6 km/h 3.7 mph /  6 km/h 54 % 0.0 in /  0 mm
19:55 7.6 °F /  -13.6 °C -1.1 °F /  -18.4 °C 1026.0 in /  34740.4 hPa SW 3.7 mph /  6 km/h 3.7 mph /  6 km/h 54 % 0.0 in /  0 mm
20:00 7.6 °F /  -13.6 °C -1.1 °F /  -18.4 °C 1026.0 in /  34740.4 hPa SW 5.6 mph /  9 km/h 5.6 mph /  9 km/h 54 % 0.0 in /  0 mm
20:05 7.5 °F /  -13.6 °C -0.9 °F /  -18.3 °C 1026.0 in /  34740.4 hPa SW 1.9 mph /  3.1 km/h 1.9 mph /  3.1 km/h 55 % 0.0 in /  0 mm
20:10 7.5 °F /  -13.6 °C -0.9 °F /  -18.3 °C 1026.0 in /  34740.4 hPa SW 3.7 mph /  6 km/h 3.7 mph /  6 km/h 55 % 0.0 in /  0 mm
20:15 7.4 °F /  -13.7 °C -1.1 °F /  -18.4 °C 1026.0 in /  34740.4 hPa SW 1.9 mph /  3.1 km/h   55 % 0.0 in /  0 mm
20:20 7.3 °F /  -13.7 °C -1.2 °F /  -18.4 °C 1026.0 in /  34740.4 hPa SW 1.9 mph /  3.1 km/h 1.9 mph /  3.1 km/h 55 % 0.0 in /  0 mm
20:25 7.2 °F /  -13.8 °C -1.0 °F /  -18.3 °C 1026.0 in /  34740.4 hPa Calm     56 % 0.0 in /  0 mm
20:30 7.1 °F /  -13.8 °C -1.1 °F /  -18.4 °C 1026.0 in /  34740.4 hPa SW 1.4 mph /  2.3 km/h   56 % 0.0 in /  0 mm
20:35 7.0 °F /  -13.9 °C -1.2 °F /  -18.4 °C 1026.0 in /  34740.4 hPa Calm     56 % 0.0 in /  0 mm
20:40 6.9 °F /  -13.9 °C -1.6 °F /  -18.7 °C 1026.0 in /  34740.4 hPa Calm     55 % 0.0 in /  0 mm
20:45 6.8 °F /  -14 °C -1.6 °F /  -18.7 °C 1026.0 in /  34740.4 hPa Calm     55 % 0.0 in /  0 mm
20:50 6.8 °F /  -14 °C -1.6 °F /  -18.7 °C 1026.0 in /  34740.4 hPa Calm     55 % 0.0 in /  0 mm
20:55 6.7 °F /  -14.1 °C -1.7 °F /  -18.7 °C 1026.0 in /  34740.4 hPa ENE 3.7 mph /  6 km/h 3.7 mph /  6 km/h 55 % 0.0 in /  0 mm
21:00 6.5 °F /  -14.2 °C -1.7 °F /  -18.7 °C 1026.0 in /  34740.4 hPa ENE 1.9 mph /  3.1 km/h   56 % 0.0 in /  0 mm
21:05 6.3 °F /  -14.3 °C -1.8 °F /  -18.8 °C 1026.0 in /  34740.4 hPa Calm     56 % 0.0 in /  0 mm
21:10 6.3 °F /  -14.3 °C -1.6 °F /  -18.7 °C 1026.0 in /  34740.4 hPa Calm     57 % 0.0 in /  0 mm
21:15 6.1 °F /  -14.4 °C -1.8 °F /  -18.8 °C 1024.9 in /  34703.1 hPa Calm     57 % 0.0 in /  0 mm
21:20 6.0 °F /  -14.4 °C -1.9 °F /  -18.8 °C 1024.9 in /  34703.1 hPa SW 1.9 mph /  3.1 km/h   57 % 0.0 in /  0 mm
21:25 5.8 °F /  -14.6 °C -2.1 °F /  -18.9 °C 1024.9 in /  34703.1 hPa Calm     57 % 0.0 in /  0 mm
21:30 5.8 °F /  -14.6 °C -2.1 °F /  -18.9 °C 1023.9 in /  34669.3 hPa SE 2.3 mph /  3.7 km/h   57 % 0.0 in /  0 mm
21:35 5.7 °F /  -14.6 °C -1.9 °F /  -18.8 °C 1023.9 in /  34669.3 hPa Calm     58 % 0.0 in /  0 mm
21:40 5.6 °F /  -14.7 °C -2.0 °F /  -18.9 °C 1023.9 in /  34669.3 hPa South 3.7 mph /  6 km/h   58 % 0.0 in /  0 mm
21:45 5.5 °F /  -14.7 °C -2.1 °F /  -18.9 °C 1023.9 in /  34669.3 hPa WSW 1.9 mph /  3.1 km/h 1.9 mph /  3.1 km/h 58 % 0.0 in /  0 mm
21:50 5.4 °F /  -14.8 °C -2.2 °F /  -19 °C 1023.9 in /  34669.3 hPa Calm     58 % 0.0 in /  0 mm
21:55 5.3 °F /  -14.8 °C -2.3 °F /  -19.1 °C 1023.9 in /  34669.3 hPa WSW 1.9 mph /  3.1 km/h   58 % 0.0 in /  0 mm
22:00 5.2 °F /  -14.9 °C -2.4 °F /  -19.1 °C 1023.9 in /  34669.3 hPa SW 1.9 mph /  3.1 km/h 1.9 mph /  3.1 km/h 58 % 0.0 in /  0 mm
22:05 5.1 °F /  -14.9 °C -2.5 °F /  -19.2 °C 1023.9 in /  34669.3 hPa Calm     58 % 0.0 in /  0 mm
22:10 5.1 °F /  -14.9 °C -2.5 °F /  -19.2 °C 1023.9 in /  34669.3 hPa WSW 3.7 mph /  6 km/h 3.7 mph /  6 km/h 58 % 0.0 in /  0 mm
22:15 5.1 °F /  -14.9 °C -2.5 °F /  -19.2 °C 1023.9 in /  34669.3 hPa WSW 2.3 mph /  3.7 km/h   58 % 0.0 in /  0 mm
22:20 5.1 °F /  -14.9 °C -2.3 °F /  -19.1 °C 1023.9 in /  34669.3 hPa Calm     59 % 0.0 in /  0 mm
22:25 5.1 °F /  -14.9 °C -2.1 °F /  -18.9 °C 1023.9 in /  34669.3 hPa Calm     60 % 0.0 in /  0 mm
22:30 5.1 °F /  -14.9 °C -2.1 °F /  -18.9 °C 1023.9 in /  34669.3 hPa Calm     60 % 0.0 in /  0 mm
22:33 5.1 °F /  -14.9 °C -2.1 °F /  -18.9 °C 1023.9 in /  34669.3 hPa Calm     60 % 0.0 in /  0 mm
22:35 2.7 °F /  -16.3 °C -2.8 °F /  -19.3 °C 1019.9 in /  34533.8 hPa NW 1.6 mph /  2.6 km/h 3.2 mph /  5.1 km/h 67 % 0.0 in /  0 mm
22:38 5.1 °F /  -14.9 °C -2.1 °F /  -18.9 °C 1023.9 in /  34669.3 hPa Calm     60 % 0.0 in /  0 mm
22:43 5.1 °F /  -14.9 °C -2.1 °F /  -18.9 °C 1023.9 in /  34669.3 hPa Calm     60 % 0.0 in /  0 mm
22:45 2.6 °F /  -16.3 °C -2.9 °F /  -19.4 °C 1019.9 in /  34533.8 hPa Calm   1.6 mph /  2.6 km/h 67 % 0.0 in /  0 mm
22:48 5.1 °F /  -14.9 °C -2.1 °F /  -18.9 °C 1023.9 in /  34669.3 hPa NNE 3.7 mph /  6 km/h 3.7 mph /  6 km/h 60 % 0.0 in /  0 mm
22:53 5.0 °F /  -15 °C -1.9 °F /  -18.8 °C 1023.9 in /  34669.3 hPa NNE 1.9 mph /  3.1 km/h   61 % 0.0 in /  0 mm
22:55 2.6 °F /  -16.3 °C -2.9 °F /  -19.4 °C 1019.9 in /  34533.8 hPa Calm     67 % 0.0 in /  0 mm
22:58 5.0 °F /  -15 °C -1.9 °F /  -18.8 °C 1023.9 in /  34669.3 hPa NE 3.7 mph /  6 km/h 3.7 mph /  6 km/h 61 % 0.0 in /  0 mm
23:03 4.9 °F /  -15.1 °C -2.0 °F /  -18.9 °C 1023.9 in /  34669.3 hPa NE 3.7 mph /  6 km/h 3.7 mph /  6 km/h 61 % 0.0 in /  0 mm
23:05 2.5 °F /  -16.4 °C -3.0 °F /  -19.4 °C 1019.9 in /  34533.8 hPa Calm     67 % 0.0 in /  0 mm
23:08 4.9 °F /  -15.1 °C -2.0 °F /  -18.9 °C 1023.9 in /  34669.3 hPa NE 1.9 mph /  3.1 km/h   61 % 0.0 in /  0 mm
23:13 4.8 °F /  -15.1 °C -2.1 °F /  -18.9 °C 1023.9 in /  34669.3 hPa East 3.7 mph /  6 km/h 3.7 mph /  6 km/h 61 % 0.0 in /  0 mm
23:15 2.4 °F /  -16.4 °C -3.1 °F /  -19.5 °C 1019.9 in /  34533.8 hPa NNE 1.6 mph /  2.6 km/h 1.6 mph /  2.6 km/h 67 % 0.0 in /  0 mm
23:18 4.8 °F /  -15.1 °C -2.1 °F /  -18.9 °C 1023.9 in /  34669.3 hPa Calm     61 % 0.0 in /  0 mm
23:23 4.7 °F /  -15.2 °C -2.2 °F /  -19 °C 1023.9 in /  34669.3 hPa Calm     61 % 0.0 in /  0 mm
23:25 2.4 °F /  -16.4 °C -3.1 °F /  -19.5 °C 1019.9 in /  34533.8 hPa Calm   1.6 mph /  2.6 km/h 67 % 0.0 in /  0 mm
23:28 4.6 °F /  -15.2 °C -2.3 °F /  -19.1 °C 1023.9 in /  34669.3 hPa SW 1.9 mph /  3.1 km/h 1.9 mph /  3.1 km/h 61 % 0.0 in /  0 mm
23:33 4.5 °F /  -15.3 °C -2.4 °F /  -19.1 °C 1023.9 in /  34669.3 hPa SW 1.9 mph /  3.1 km/h 1.9 mph /  3.1 km/h 61 % 0.0 in /  0 mm
23:35 2.4 °F /  -16.4 °C -3.1 °F /  -19.5 °C 1018.8 in /  34496.6 hPa Calm   3.2 mph /  5.1 km/h 67 % 0.0 in /  0 mm
23:38 4.4 °F /  -15.3 °C -2.5 °F /  -19.2 °C 1023.9 in /  34669.3 hPa SW 1.9 mph /  3.1 km/h   61 % 0.0 in /  0 mm
23:43 4.4 °F /  -15.3 °C -2.5 °F /  -19.2 °C 1023.9 in /  34669.3 hPa SW 3.7 mph /  6 km/h 3.7 mph /  6 km/h 61 % 0.0 in /  0 mm
23:45 2.3 °F /  -16.5 °C -3.2 °F /  -19.6 °C 1018.8 in /  34496.6 hPa Calm   3.2 mph /  5.1 km/h 67 % 0.0 in /  0 mm
23:48 4.4 °F /  -15.3 °C -2.5 °F /  -19.2 °C 1023.9 in /  34669.3 hPa SW 1.9 mph /  3.1 km/h   61 % 0.0 in /  0 mm
23:53 4.3 °F /  -15.4 °C -2.6 °F /  -19.2 °C 1023.9 in /  34669.3 hPa Calm     61 % 0.0 in /  0 mm
23:55 2.2 °F /  -16.6 °C -3.3 °F /  -19.6 °C 1018.8 in /  34496.6 hPa WSW 1.6 mph /  2.6 km/h 3.2 mph /  5.1 km/h 67 % 0.0 in /  0 mm
23:58 4.3 °F /  -15.4 °C -2.3 °F /  -19.1 °C 1023.9 in /  34669.3 hPa Calm     62 % 0.0 in /  0 mm
Meteo Sesrovires
Elogis d' Weather Underground - 3.5 mb

Guio original per  Jim McMurry - jmcmurry@mwt.net Adaptat per a la plantilla per  Wim van der Kuil - Leuven-Template.eu

Trobareu la nostra informacio del temps tambe a:

Weather Underground

AWEKAS